Time;durP1;ratioP1;P1;durP2;ratioP2;P2;SDS_P1;SDS_P2;PMS_P1;PMS_P2;Temp;Humidity;BMP_temperature;BMP_pressure;BME280_temperature;BME280_humidity;BME280_pressure;Samples;Min_cycle;Max_cycle;Signal;HPM_P1;HPM_P2
2021/04/06 00:00:38;;;;;;;5.10;3.63;;;-0.80;99.90;;;;;;6249121;28;20087;-76
2021/04/06 00:03:40;;;;;;;7.37;3.70;;;-0.80;99.90;;;;;;6251247;28;20125;-76
2021/04/06 00:06:44;;;;;;;6.30;4.47;;;-0.70;99.90;;;;;;6251577;28;20053;-76
2021/04/06 00:09:51;;;;;;;6.10;4.33;;;-0.70;99.90;;;;;;6251010;28;20498;-77
2021/04/06 00:12:56;;;;;;;6.33;4.10;;;-0.70;99.90;;;;;;6251517;28;20124;-77
2021/04/06 00:15:57;;;;;;;5.40;4.90;;;-0.60;99.90;;;;;;6249191;28;20124;-77
2021/04/06 00:18:59;;;;;;;11.30;9.63;;;-0.60;99.90;;;;;;6251615;28;20049;-76
2021/04/06 00:22:03;;;;;;;4.67;4.07;;;-0.60;99.90;;;;;;6250974;28;20125;-76
2021/04/06 00:25:07;;;;;;;6.67;4.93;;;-0.60;99.90;;;;;;6250872;28;20124;-76
2021/04/06 00:28:11;;;;;;;10.87;6.30;;;-0.60;99.90;;;;;;6250745;28;20076;-76
2021/04/06 00:31:15;;;;;;;25.57;22.97;;;-0.70;99.90;;;;;;6250630;28;20096;-77
2021/04/06 00:34:18;;;;;;;5.93;4.07;;;-0.60;99.90;;;;;;6251560;28;20085;-76
2021/04/06 00:37:21;;;;;;;6.90;3.23;;;-0.60;99.90;;;;;;6250569;28;20154;-75
2021/04/06 00:40:24;;;;;;;4.00;3.60;;;-0.60;99.90;;;;;;6250953;28;20590;-77
2021/04/06 00:43:33;;;;;;;8.47;4.00;;;-0.60;99.90;;;;;;6250625;28;20092;-77
2021/04/06 00:46:35;;;;;;;8.97;4.53;;;-0.60;99.90;;;;;;6250660;28;20503;-76
2021/04/06 00:49:37;;;;;;;11.13;4.80;;;-0.60;99.90;;;;;;6250318;28;20048;-76
2021/04/06 00:52:42;;;;;;;6.20;4.00;;;-0.70;99.90;;;;;;6250507;28;20048;-76
2021/04/06 00:55:44;;;;;;;4.70;4.27;;;-0.70;99.90;;;;;;6250450;28;20076;-76
2021/04/06 00:58:50;;;;;;;9.13;3.37;;;-0.70;99.90;;;;;;6250563;28;20138;-76
2021/04/06 01:01:57;;;;;;;6.70;3.33;;;-0.70;99.90;;;;;;6250169;28;20474;-76
2021/04/06 01:05:04;;;;;;;6.55;3.30;;;-0.70;99.90;;;;;;6250311;28;20056;-76
2021/04/06 01:08:08;;;;;;;6.00;5.27;;;-0.70;99.90;;;;;;6249897;28;20411;-76
2021/04/06 01:11:10;;;;;;;11.83;9.67;;;-0.70;99.90;;;;;;6249976;28;20133;-76
2021/04/06 01:14:15;;;;;;;6.23;3.93;;;-0.70;99.90;;;;;;6250453;28;20128;-76
2021/04/06 01:17:19;;;;;;;6.90;5.50;;;-0.70;99.90;;;;;;6249524;28;20081;-76
2021/04/06 01:20:21;;;;;;;11.33;7.33;;;-0.70;99.90;;;;;;6250414;28;20038;-76
2021/04/06 01:23:24;;;;;;;22.77;13.80;;;-0.70;99.90;;;;;;6250249;28;20093;-76
2021/04/06 01:26:26;;;;;;;17.07;10.73;;;-0.60;99.90;;;;;;6249935;28;20063;-76
2021/04/06 01:29:28;;;;;;;13.60;7.60;;;-0.60;99.90;;;;;;6249474;28;20404;-76
2021/04/06 01:32:30;;;;;;;12.73;10.43;;;-0.60;99.90;;;;;;6249868;28;20052;-76
2021/04/06 01:35:31;;;;;;;8.87;5.27;;;-0.60;99.90;;;;;;6249967;28;20124;-76
2021/04/06 01:38:37;;;;;;;8.20;4.80;;;-0.60;99.90;;;;;;6250480;28;20088;-77
2021/04/06 01:41:38;;;;;;;7.90;3.50;;;-0.60;99.90;;;;;;6249704;28;20049;-76
2021/04/06 01:44:43;;;;;;;8.43;4.10;;;-0.60;99.90;;;;;;6249528;28;20121;-77
2021/04/06 01:47:45;;;;;;;3.43;2.93;;;-0.50;99.90;;;;;;6250581;28;20049;-77
2021/04/06 01:50:49;;;;;;;9.20;4.97;;;-0.50;99.90;;;;;;6252136;28;20049;-76
2021/04/06 01:53:52;;;;;;;6.20;3.00;;;-0.60;99.90;;;;;;6251702;28;20046;-76
2021/04/06 01:56:57;;;;;;;6.50;3.50;;;-0.60;99.90;;;;;;6251281;28;20068;-76
2021/04/06 02:00:04;;;;;;;9.30;8.33;;;-0.60;99.90;;;;;;6253092;28;20045;-75
2021/04/06 02:03:09;;;;;;;5.00;4.50;;;-0.60;99.90;;;;;;6250173;28;20046;-76
2021/04/06 02:06:13;;;;;;;11.27;4.30;;;-0.60;99.90;;;;;;6248775;28;20511;-76
2021/04/06 02:09:18;;;;;;;6.63;3.03;;;-0.60;99.90;;;;;;6248469;28;20045;-76
2021/04/06 02:12:22;;;;;;;6.77;4.10;;;-0.70;99.90;;;;;;6248826;28;20050;-76
2021/04/06 02:15:23;;;;;;;7.90;3.40;;;-0.60;99.90;;;;;;6248435;28;20087;-76
2021/04/06 02:18:26;;;;;;;10.03;3.73;;;-0.60;99.90;;;;;;6249138;28;20080;-76
2021/04/06 02:21:28;;;;;;;8.83;3.37;;;-0.60;99.90;;;;;;6248297;28;20128;-77
2021/04/06 02:24:36;;;;;;;9.43;3.80;;;-0.60;99.90;;;;;;6247829;28;20057;-76
2021/04/06 02:27:38;;;;;;;4.40;2.93;;;-0.50;99.90;;;;;;6247993;28;20077;-76
2021/04/06 02:30:39;;;;;;;6.03;3.83;;;-0.50;99.90;;;;;;6248488;28;20076;-76
2021/04/06 02:33:41;;;;;;;6.40;4.00;;;-0.50;99.90;;;;;;6248281;28;20125;-77
2021/04/06 02:36:46;;;;;;;7.30;3.97;;;-0.40;99.90;;;;;;6247700;28;20498;-76
2021/04/06 02:39:49;;;;;;;3.00;2.40;;;-0.40;99.90;;;;;;6247903;28;20072;-76
2021/04/06 02:42:55;;;;;;;5.63;3.37;;;-0.20;99.90;;;;;;6248439;28;20045;-76
2021/04/06 02:45:56;;;;;;;8.37;4.43;;;-0.10;99.90;;;;;;6247723;28;20084;-76
2021/04/06 02:49:00;;;;;;;4.97;2.83;;;0.00;99.90;;;;;;6247580;28;20136;-75
2021/04/06 02:52:02;;;;;;;9.17;2.90;;;0.00;99.90;;;;;;6247721;28;20053;-75
2021/04/06 02:55:05;;;;;;;5.83;3.90;;;0.10;99.90;;;;;;6247640;28;20594;-76
2021/04/06 02:58:13;;;;;;;7.60;3.33;;;0.20;99.90;;;;;;6247370;28;20045;-76
2021/04/06 03:01:16;;;;;;;7.60;3.33;;;0.20;99.90;;;;;;6251284;28;20124;-76
2021/04/06 03:04:22;;;;;;;3.97;2.63;;;0.20;99.90;;;;;;6251404;28;20045;-76
2021/04/06 03:07:24;;;;;;;7.27;4.43;;;0.20;99.90;;;;;;6246745;28;20053;-76
2021/04/06 03:10:28;;;;;;;4.63;2.80;;;0.10;99.90;;;;;;6247619;28;20368;-77
2021/04/06 03:13:29;;;;;;;5.53;3.57;;;0.10;99.90;;;;;;6247215;28;20507;-76
2021/04/06 03:16:32;;;;;;;5.87;4.17;;;0.10;99.90;;;;;;6246975;28;20064;-76
2021/04/06 03:19:34;;;;;;;5.13;3.80;;;0.20;99.90;;;;;;6246864;28;20041;-76
2021/04/06 03:22:35;;;;;;;7.03;4.40;;;0.20;99.90;;;;;;6247585;28;20077;-75
2021/04/06 03:25:38;;;;;;;7.77;5.00;;;0.20;99.90;;;;;;6247107;28;20069;-76
2021/04/06 03:28:40;;;;;;;13.60;3.73;;;0.20;99.90;;;;;;6246741;28;20049;-76
2021/04/06 03:31:41;;;;;;;6.47;2.63;;;0.20;99.90;;;;;;6247476;28;20042;-75
2021/04/06 03:34:43;;;;;;;9.07;3.23;;;0.20;99.90;;;;;;6248887;28;20093;-75
2021/04/06 03:37:45;;;;;;;4.20;3.30;;;0.20;99.90;;;;;;6251766;28;20584;-76
2021/04/06 03:40:47;;;;;;;5.20;2.40;;;0.20;99.90;;;;;;6251795;28;20133;-76
2021/04/06 03:43:48;;;;;;;6.97;3.30;;;0.20;99.90;;;;;;6251969;28;20038;-76
2021/04/06 03:46:57;;;;;;;5.03;3.27;;;0.30;99.90;;;;;;6252425;28;20085;-76
2021/04/06 03:49:59;;;;;;;7.07;3.80;;;0.40;99.90;;;;;;6251945;28;20076;-75
2021/04/06 03:53:01;;;;;;;19.17;4.43;;;0.40;99.90;;;;;;6251972;28;20073;-75
2021/04/06 03:56:05;;;;;;;4.37;3.53;;;0.40;99.90;;;;;;6251358;28;20073;-75
2021/04/06 03:59:10;;;;;;;6.90;3.27;;;0.40;99.90;;;;;;6251616;28;20053;-76
2021/04/06 04:02:11;;;;;;;7.63;3.40;;;0.40;99.90;;;;;;6251877;28;20053;-75
2021/04/06 04:05:13;;;;;;;11.60;4.33;;;0.40;99.90;;;;;;6251368;28;20162;-76
2021/04/06 04:08:14;;;;;;;8.47;6.33;;;0.40;99.90;;;;;;6250982;28;20122;-76
2021/04/06 04:11:16;;;;;;;11.40;3.53;;;0.40;99.70;;;;;;6251269;28;20579;-76
2021/04/06 04:14:18;;;;;;;5.80;3.33;;;0.50;99.50;;;;;;6251949;28;20052;-76
2021/04/06 04:17:19;;;;;;;5.73;2.93;;;0.50;98.40;;;;;;6250913;28;20051;-76
2021/04/06 04:20:22;;;;;;;4.17;2.60;;;0.50;97.60;;;;;;6250913;28;20559;-76
2021/04/06 04:23:23;;;;;;;6.73;2.93;;;0.50;97.10;;;;;;6251480;28;20049;-76
2021/04/06 04:26:25;;;;;;;6.00;4.27;;;0.50;96.70;;;;;;6251336;28;20081;-76
2021/04/06 04:29:27;;;;;;;5.50;2.77;;;0.60;96.60;;;;;;6250842;28;20065;-76
2021/04/06 04:32:28;;;;;;;9.30;3.07;;;0.60;96.10;;;;;;6251038;28;20073;-76
2021/04/06 04:35:30;;;;;;;6.57;4.07;;;0.70;95.50;;;;;;6250602;28;20251;-76
2021/04/06 04:38:31;;;;;;;8.10;3.53;;;0.70;95.10;;;;;;6251240;28;20085;-76
2021/04/06 04:41:33;;;;;;;3.83;3.20;;;0.70;94.80;;;;;;6250399;28;20132;-76
2021/04/06 04:44:35;;;;;;;5.93;3.60;;;0.70;94.80;;;;;;6250632;28;20091;-76
2021/04/06 04:47:36;;;;;;;9.60;5.23;;;0.70;95.10;;;;;;6249699;28;20849;-76
2021/04/06 04:50:37;;;;;;;17.03;3.97;;;0.70;94.90;;;;;;6251114;28;20041;-76
2021/04/06 04:53:38;;;;;;;6.87;3.67;;;0.70;94.90;;;;;;6250275;28;20542;-76
2021/04/06 04:56:41;;;;;;;11.90;3.83;;;0.70;94.70;;;;;;6250922;28;20132;-77
2021/04/06 04:59:42;;;;;;;9.60;3.60;;;0.60;94.70;;;;;;6250345;28;20612;-76
2021/04/06 05:02:44;;;;;;;6.23;2.97;;;0.50;94.80;;;;;;6250369;28;20083;-76
2021/04/06 05:05:45;;;;;;;9.03;3.73;;;0.50;94.60;;;;;;6249990;28;20175;-76
2021/04/06 05:08:46;;;;;;;5.63;3.37;;;0.50;94.80;;;;;;6249728;28;20100;-76
2021/04/06 05:11:48;;;;;;;3.57;3.03;;;0.50;95.00;;;;;;6249870;28;20139;-76
2021/04/06 05:14:51;;;;;;;5.63;3.67;;;0.50;95.20;;;;;;6250715;28;20133;-76
2021/04/06 05:17:52;;;;;;;8.83;2.43;;;0.60;95.00;;;;;;6249436;28;20443;-75
2021/04/06 05:20:53;;;;;;;9.17;3.77;;;0.60;94.60;;;;;;6249452;28;20045;-76
2021/04/06 05:23:55;;;;;;;5.00;3.23;;;0.90;94.60;;;;;;6249875;28;20049;-76
2021/04/06 05:26:57;;;;;;;5.67;4.13;;;1.00;93.90;;;;;;6249983;28;20136;-75
2021/04/06 05:29:58;;;;;;;7.90;3.10;;;1.10;93.80;;;;;;6249147;28;20135;-76
2021/04/06 05:32:59;;;;;;;8.83;3.47;;;1.30;93.10;;;;;;6249687;28;20133;-76
2021/04/06 05:36:01;;;;;;;3.87;3.37;;;1.40;92.50;;;;;;6249166;28;20148;-76
2021/04/06 05:39:03;;;;;;;5.73;2.73;;;1.50;91.90;;;;;;6249836;28;20060;-76
2021/04/06 05:42:06;;;;;;;9.83;3.73;;;1.60;91.30;;;;;;6249150;28;20049;-76
2021/04/06 05:45:09;;;;;;;8.80;3.60;;;1.70;91.40;;;;;;6249184;28;20069;-76
2021/04/06 05:48:14;;;;;;;8.87;4.20;;;1.80;91.30;;;;;;6248795;28;20125;-77
2021/04/06 05:51:16;;;;;;;7.40;3.63;;;2.00;91.30;;;;;;6248771;28;20496;-76
2021/04/06 05:54:18;;;;;;;4.90;2.97;;;2.10;90.60;;;;;;6250517;28;20053;-75
2021/04/06 05:57:20;;;;;;;12.37;4.40;;;2.10;90.00;;;;;;6248740;28;20095;-75
2021/04/06 06:00:22;;;;;;;12.33;3.47;;;2.00;89.30;;;;;;6248702;28;20124;-76
2021/04/06 06:03:24;;;;;;;6.37;3.60;;;1.80;88.80;;;;;;6246070;28;20088;-76
2021/04/06 06:06:25;;;;;;;12.27;3.77;;;1.80;89.60;;;;;;6238518;28;20110;-76
2021/04/06 06:09:31;;;;;;;5.07;3.47;;;1.90;89.20;;;;;;6248152;28;20535;-76
2021/04/06 06:12:33;;;;;;;8.10;3.63;;;2.00;89.10;;;;;;6248058;28;20076;-76
2021/04/06 06:15:35;;;;;;;9.80;5.30;;;2.10;88.20;;;;;;6248450;28;20041;-76
2021/04/06 06:18:57;;;;;;;9.33;3.83;;;2.10;87.90;;;;;;6248794;28;20141;-76
2021/04/06 06:22:10;;;;;;;9.60;4.07;;;2.10;86.40;;;;;;6248216;28;20116;-76
2021/04/06 06:25:13;;;;;;;6.70;3.20;;;2.20;85.90;;;;;;6247958;28;20071;-77
2021/04/06 06:28:16;;;;;;;8.93;5.37;;;2.20;85.80;;;;;;6247721;28;20045;-76
2021/04/06 06:31:33;;;;;;;4.50;3.60;;;2.30;84.90;;;;;;6248146;28;20088;-76
2021/04/06 06:34:36;;;;;;;13.97;4.40;;;2.50;85.50;;;;;;6248512;28;20099;-76
2021/04/06 06:37:38;;;;;;;9.67;3.83;;;2.60;84.80;;;;;;6247595;28;20046;-76
2021/04/06 06:40:39;;;;;;;8.50;3.37;;;2.90;85.40;;;;;;6247890;28;20045;-76
2021/04/06 06:43:43;;;;;;;5.17;3.00;;;3.30;84.10;;;;;;6248083;28;20045;-76
2021/04/06 06:46:44;;;;;;;6.87;2.87;;;3.70;81.50;;;;;;6247832;28;20574;-76
2021/04/06 06:49:45;;;;;;;6.97;5.10;;;3.50;79.70;;;;;;6247306;28;20065;-77
2021/04/06 06:52:52;;;;;;;5.90;3.27;;;3.40;80.90;;;;;;6247593;28;20144;-77
2021/04/06 06:55:54;;;;;;;4.87;3.30;;;3.40;81.20;;;;;;6247531;28;20132;-77
2021/04/06 06:58:56;;;;;;;6.00;3.73;;;3.20;79.60;;;;;;6247320;28;20053;-77
2021/04/06 07:02:20;;;;;;;9.20;3.97;;;3.20;81.60;;;;;;6247207;28;20488;-77
2021/04/06 07:05:23;;;;;;;13.40;3.77;;;3.30;80.80;;;;;;6247535;28;20130;-76
2021/04/06 07:08:32;;;;;;;11.00;4.37;;;3.40;81.50;;;;;;6246724;28;20045;-76
2021/04/06 07:11:34;;;;;;;6.73;3.37;;;3.50;80.20;;;;;;6247316;28;20041;-77
2021/04/06 07:14:39;;;;;;;9.63;4.77;;;3.50;79.60;;;;;;6247519;28;20128;-76
2021/04/06 07:17:43;;;;;;;5.73;3.33;;;3.40;78.70;;;;;;6247858;28;20422;-75
2021/04/06 07:20:51;;;;;;;17.83;6.23;;;3.40;80.60;;;;;;6248672;28;20065;-77
2021/04/06 07:23:59;;;;;;;9.23;3.28;;;3.30;81.00;;;;;;6248450;28;20701;-76
2021/04/06 07:27:04;;;;;;;;;;;3.20;81.40;;;;;;6248628;28;20060;-77
2021/04/06 07:30:09;;;;;;;10.33;4.33;;;3.00;81.60;;;;;;6247708;28;19921;-80
2021/04/06 07:33:11;;;;;;;11.77;4.73;;;2.80;81.60;;;;;;6247531;28;20065;-77
2021/04/06 07:36:15;;;;;;;9.93;4.33;;;2.80;82.60;;;;;;6248066;28;20045;-77
2021/04/06 07:39:17;;;;;;;9.03;3.93;;;2.70;82.40;;;;;;6247558;28;20576;-77
2021/04/06 07:42:18;;;;;;;11.63;3.80;;;2.70;83.00;;;;;;6250082;28;20045;-77
2021/04/06 07:45:43;;;;;;;10.57;5.50;;;2.70;82.40;;;;;;6249651;28;20126;-76
2021/04/06 07:48:48;;;;;;;7.73;4.53;;;2.70;83.30;;;;;;6248741;28;20046;-77
2021/04/06 07:51:51;;;;;;;12.03;4.47;;;2.60;83.70;;;;;;6249972;28;20041;-78
2021/04/06 07:54:53;;;;;;;8.57;4.43;;;2.50;83.40;;;;;;6261157;28;20058;-78
2021/04/06 07:57:55;;;;;;;8.60;5.30;;;2.60;84.20;;;;;;6260694;28;20045;-77
2021/04/06 08:01:06;;;;;;;4.77;3.77;;;2.60;83.50;;;;;;6260308;28;20057;-77
2021/04/06 08:04:07;;;;;;;11.73;4.77;;;2.80;83.80;;;;;;6255300;28;20061;-75
2021/04/06 08:07:24;;;;;;;13.23;3.73;;;2.90;83.80;;;;;;6252265;28;20059;-77
2021/04/06 08:10:35;;;;;;;4.77;3.80;;;3.10;83.50;;;;;;6249848;28;20487;-78
2021/04/06 08:13:38;;;;;;;8.07;5.13;;;3.30;82.00;;;;;;6252406;28;20064;-77
2021/04/06 08:16:40;;;;;;;5.53;2.80;;;3.30;83.00;;;;;;6252032;28;20128;-78
2021/04/06 08:19:49;;;;;;;7.10;4.53;;;3.40;82.50;;;;;;6255190;28;20124;-78
2021/04/06 08:22:55;;;;;;;6.87;5.43;;;3.50;81.90;;;;;;6257667;28;20188;-78
2021/04/06 08:25:56;;;;;;;11.43;3.53;;;3.70;83.30;;;;;;6255470;28;20495;-78
2021/04/06 08:29:29;;;;;;;9.73;4.00;;;3.80;82.10;;;;;;6256777;28;20042;-78
2021/04/06 08:32:31;;;;;;;8.90;3.60;;;3.90;81.60;;;;;;6257190;28;20050;-78
2021/04/06 08:36:03;;;;;;;6.63;4.60;;;3.90;81.20;;;;;;6258237;28;20080;-77
2021/04/06 08:39:05;;;;;;;9.07;4.77;;;4.00;81.30;;;;;;6257454;28;20050;-77
2021/04/06 08:42:08;;;;;;;10.27;4.33;;;4.00;80.80;;;;;;6256530;28;20107;-78
2021/04/06 08:45:10;;;;;;;10.23;4.07;;;4.10;80.60;;;;;;6257899;28;20049;-78
2021/04/06 08:48:46;;;;;;;8.67;3.43;;;4.10;80.60;;;;;;6258661;28;20138;-79
2021/04/06 08:51:49;;;;;;;12.30;3.70;;;4.20;80.90;;;;;;6255395;28;20411;-78
2021/04/06 08:54:50;;;;;;;10.13;4.37;;;4.40;79.80;;;;;;6257003;28;20073;-78
2021/04/06 08:57:57;;;;;;;4.30;3.17;;;4.60;79.20;;;;;;6254911;28;20049;-78
2021/04/06 09:01:04;;;;;;;6.33;3.13;;;4.80;78.60;;;;;;6255292;28;20045;-78
2021/04/06 09:04:11;;;;;;;10.52;4.80;;;4.70;77.50;;;;;;6255078;28;20048;-77
2021/04/06 09:07:17;;;;;;;11.45;7.47;;;4.60;77.80;;;;;;6255032;28;20515;-77
2021/04/06 09:10:18;;;;;;;8.33;4.57;;;4.50;77.60;;;;;;6252282;28;20080;-77
2021/04/06 09:13:20;;;;;;;9.13;3.77;;;4.30;79.20;;;;;;6252945;28;20048;-77
2021/04/06 09:16:23;;;;;;;8.63;3.70;;;4.40;77.70;;;;;;6251530;28;20052;-77
2021/04/06 09:19:26;;;;;;;9.73;4.83;;;4.60;78.80;;;;;;6251299;28;20140;-76
2021/04/06 09:22:27;;;;;;;10.73;3.53;;;4.90;77.40;;;;;;6251504;28;20612;-75
2021/04/06 09:25:29;;;;;;;8.57;4.70;;;5.00;76.40;;;;;;6249633;28;20076;-76
2021/04/06 09:28:30;;;;;;;11.10;3.85;;;5.10;77.20;;;;;;6248130;28;20045;-77
2021/04/06 09:31:33;;;;;;;7.55;4.43;;;5.50;74.60;;;;;;6256885;28;20104;-76
2021/04/06 09:34:37;;;;;;;12.07;4.13;;;5.40;73.50;;;;;;6246575;28;20096;-78
2021/04/06 09:37:39;;;;;;;10.30;3.75;;;5.30;74.20;;;;;;6251939;28;20611;-77
2021/04/06 09:40:43;;;;;;;5.50;4.35;;;5.60;73.30;;;;;;6251476;28;20045;-77
2021/04/06 09:43:44;;;;;;;6.18;3.70;;;5.60;73.60;;;;;;6268649;28;20510;-76
2021/04/06 09:46:48;;;;;;;11.63;3.58;;;5.60;73.10;;;;;;6272450;28;20109;-78
2021/04/06 09:49:52;;;;;;;6.88;3.35;;;5.50;73.70;;;;;;6269560;28;20049;-76
2021/04/06 09:52:53;;;;;;;8.00;3.45;;;6.00;73.20;;;;;;6263446;28;20064;-76
2021/04/06 09:55:57;;;;;;;4.22;3.40;;;6.60;75.00;;;;;;6261318;28;20037;-79
2021/04/06 09:58:58;;;;;;;7.93;3.65;;;7.20;76.10;;;;;;6272648;28;20049;-75
2021/04/06 10:02:00;;;;;;;3.30;2.45;;;7.40;75.00;;;;;;6262537;28;20045;-75
2021/04/06 10:05:02;;;;;;;8.27;3.20;;;6.20;69.20;;;;;;6248619;28;20041;-76
2021/04/06 10:08:05;;;;;;;12.07;4.78;;;7.20;69.90;;;;;;6264757;28;20128;-76
2021/04/06 10:11:07;;;;;;;8.23;3.65;;;7.30;69.30;;;;;;6264099;28;20045;-78
2021/04/06 10:14:09;;;;;;;9.98;3.83;;;7.60;77.30;;;;;;6259879;28;20128;-77
2021/04/06 10:17:12;;;;;;;5.68;3.42;;;7.50;70.30;;;;;;6261829;28;20053;-79
2021/04/06 10:20:18;;;;;;;8.07;4.28;;;7.40;67.40;;;;;;6262346;28;20117;-76
2021/04/06 10:23:31;;;;;;;5.45;3.35;;;7.30;68.00;;;;;;6264614;28;20526;-80
2021/04/06 10:26:32;;;;;;;5.90;3.58;;;7.40;68.10;;;;;;6263030;28;20132;-78
2021/04/06 10:29:35;;;;;;;4.47;2.92;;;7.30;69.60;;;;;;6257085;28;20056;-77
2021/04/06 10:32:38;;;;;;;7.55;3.35;;;7.50;69.10;;;;;;6261330;28;20069;-77
2021/04/06 10:35:44;;;;;;;8.05;2.63;;;7.70;69.60;;;;;;6251486;28;20088;-77
2021/04/06 10:38:47;;;;;;;7.93;2.92;;;8.00;66.30;;;;;;6256980;28;20481;-77
2021/04/06 10:41:49;;;;;;;6.55;3.30;;;8.10;67.20;;;;;;6269340;28;20044;-77
2021/04/06 10:44:51;;;;;;;5.30;3.45;;;8.10;65.30;;;;;;6278376;28;20102;-77
2021/04/06 10:48:11;;;;;;;5.80;2.70;;;8.00;63.70;;;;;;6271413;28;20508;-78
2021/04/06 10:51:17;;;;;;;10.88;3.67;;;8.10;65.30;;;;;;6254682;28;20114;-80
2021/04/06 10:54:18;;;;;;;5.57;3.35;;;8.10;62.20;;;;;;6261058;28;20496;-78
2021/04/06 10:57:27;;;;;;;9.10;4.22;;;8.40;63.30;;;;;;6260585;28;20419;-78
2021/04/06 11:00:30;;;;;;;5.00;2.67;;;8.60;62.40;;;;;;6254055;28;20104;-79
2021/04/06 11:03:43;;;;;;;4.28;2.38;;;8.60;63.20;;;;;;6266841;28;20071;-77
2021/04/06 11:06:48;;;;;;;4.30;2.60;;;8.90;62.60;;;;;;6265004;28;20055;-79
2021/04/06 11:09:49;;;;;;;7.68;2.95;;;9.30;60.60;;;;;;6266991;28;20048;-76
2021/04/06 11:12:51;;;;;;;6.25;2.17;;;;;;;;;;6259220;28;20041;-79
2021/04/06 11:15:52;;;;;;;8.77;3.15;;;9.30;61.70;;;;;;6276937;28;20069;-80
2021/04/06 11:19:09;;;;;;;9.52;3.03;;;9.20;59.20;;;;;;6271388;28;20053;-78
2021/04/06 11:22:12;;;;;;;4.60;2.55;;;9.10;58.80;;;;;;6255864;28;20049;-79
2021/04/06 11:25:14;;;;;;;8.20;3.03;;;9.00;59.30;;;;;;6253813;28;20049;-79
2021/04/06 11:28:15;;;;;;;11.75;2.80;;;9.00;59.70;;;;;;6271583;28;20468;-79
2021/04/06 11:31:17;;;;;;;4.93;2.75;;;9.20;59.10;;;;;;6262636;28;20077;-77
2021/04/06 11:34:18;;;;;;;5.22;2.97;;;9.40;58.60;;;;;;6263628;28;20482;-79
2021/04/06 11:37:20;;;;;;;5.82;2.47;;;9.70;59.10;;;;;;6268129;28;20414;-78
2021/04/06 11:40:22;;;;;;;3.72;1.65;;;10.00;57.60;;;;;;6261492;28;20090;-78
2021/04/06 11:43:23;;;;;;;4.47;1.88;;;10.20;55.90;;;;;;6257331;28;20148;-78
2021/04/06 11:46:24;;;;;;;7.20;2.38;;;10.40;55.20;;;;;;6280111;28;20064;-78
2021/04/06 11:49:27;;;;;;;5.18;2.42;;;10.50;54.10;;;;;;6266962;28;20488;-78
2021/04/06 11:52:29;;;;;;;7.20;3.50;;;10.50;54.70;;;;;;6273906;28;20104;-79
2021/04/06 11:55:31;;;;;;;5.20;2.65;;;10.60;54.00;;;;;;6273079;28;20105;-77
2021/04/06 11:58:32;;;;;;;4.68;2.25;;;10.50;52.80;;;;;;6254999;28;20106;-78
2021/04/06 12:01:34;;;;;;;6.57;2.20;;;10.50;52.00;;;;;;6264819;28;20155;-77
2021/04/06 12:04:36;;;;;;;6.18;2.42;;;10.40;53.20;;;;;;6264377;28;20124;-77
2021/04/06 12:07:38;;;;;;;5.80;1.90;;;10.80;53.10;;;;;;6260412;28;20045;-78
2021/04/06 12:10:39;;;;;;;12.10;4.15;;;11.30;52.50;;;;;;6267085;28;20045;-79
2021/04/06 12:13:41;;;;;;;3.92;1.80;;;11.70;50.70;;;;;;6265899;28;20491;-78
2021/04/06 12:16:42;;;;;;;4.60;2.88;;;11.70;48.90;;;;;;6265547;28;20046;-79
2021/04/06 12:19:43;;;;;;;4.40;2.35;;;11.40;51.50;;;;;;6259587;28;20123;-78
2021/04/06 12:22:45;;;;;;;3.03;1.80;;;10.80;50.50;;;;;;6274097;28;20107;-78
2021/04/06 12:25:47;;;;;;;3.95;2.65;;;10.30;53.10;;;;;;6274022;28;20049;-77
2021/04/06 12:28:49;;;;;;;6.13;2.05;;;9.80;53.50;;;;;;6271705;28;20049;-78
2021/04/06 12:31:50;;;;;;;5.18;1.90;;;9.40;53.10;;;;;;6249404;28;20042;-79
2021/04/06 12:34:52;;;;;;;6.18;2.30;;;9.00;56.40;;;;;;6259277;28;20049;-77
2021/04/06 12:37:56;;;;;;;4.05;2.08;;;8.60;58.30;;;;;;6265569;28;20057;-77
2021/04/06 12:40:57;;;;;;;4.93;3.45;;;8.00;62.60;;;;;;6261761;28;20064;-77
2021/04/06 12:43:59;;;;;;;4.93;2.90;;;7.40;66.90;;;;;;6261468;28;20068;-78
2021/04/06 12:47:00;;;;;;;5.05;4.53;;;6.90;70.90;;;;;;6268040;28;20049;-77
2021/04/06 12:50:03;;;;;;;13.75;12.30;;;6.60;73.30;;;;;;6264535;28;20071;-77
2021/04/06 12:53:05;;;;;;;4.95;3.53;;;6.30;74.60;;;;;;6274981;28;20049;-78
2021/04/06 12:56:07;;;;;;;4.15;3.20;;;5.90;74.30;;;;;;6274654;28;20051;-77
2021/04/06 12:59:08;;;;;;;2.90;2.70;;;5.30;76.80;;;;;;6277797;28;20079;-76
2021/04/06 13:02:10;;;;;;;6.68;3.17;;;4.70;79.40;;;;;;6264136;28;20049;-76
2021/04/06 13:05:13;;;;;;;6.55;5.22;;;4.20;81.40;;;;;;6265742;28;20136;-76
2021/04/06 13:08:16;;;;;;;5.15;4.65;;;3.70;84.20;;;;;;6281921;28;20052;-77
2021/04/06 13:11:17;;;;;;;4.30;3.90;;;3.60;88.00;;;;;;6255578;28;20520;-77
2021/04/06 13:14:18;;;;;;;2.37;2.07;;;3.70;90.40;;;;;;6261570;28;20171;-77
2021/04/06 13:17:20;;;;;;;5.80;5.20;;;4.00;92.30;;;;;;6275066;28;20510;-78
2021/04/06 13:20:21;;;;;;;4.28;2.15;;;4.30;93.20;;;;;;6270324;28;20045;-77
2021/04/06 13:23:24;;;;;;;5.22;1.83;;;4.50;93.30;;;;;;6254931;28;20136;-77
2021/04/06 13:26:25;;;;;;;2.55;1.67;;;4.60;93.60;;;;;;6266407;28;20055;-77
2021/04/06 13:29:26;;;;;;;9.82;7.63;;;4.60;93.00;;;;;;6271092;28;20049;-77
2021/04/06 13:32:28;;;;;;;5.05;3.20;;;4.50;93.80;;;;;;6255529;28;20047;-77
2021/04/06 13:35:30;;;;;;;3.78;2.55;;;4.70;94.70;;;;;;6258260;28;20112;-76
2021/04/06 13:38:32;;;;;;;5.03;2.38;;;5.20;94.00;;;;;;6261467;28;20050;-77
2021/04/06 13:41:34;;;;;;;2.35;2.15;;;5.60;92.60;;;;;;6265572;28;20042;-77
2021/04/06 13:44:38;;;;;;;5.57;3.83;;;;;;;;;;6256790;28;20064;-77
2021/04/06 13:47:40;;;;;;;4.45;3.50;;;6.50;85.50;;;;;;6249514;28;20052;-77
2021/04/06 13:50:43;;;;;;;6.65;3.42;;;6.80;83.40;;;;;;6258247;28;20128;-77
2021/04/06 13:53:45;;;;;;;3.92;2.72;;;6.90;76.20;;;;;;6263953;28;20163;-77
2021/04/06 13:56:47;;;;;;;3.05;2.13;;;7.00;74.10;;;;;;6258942;28;20122;-77
2021/04/06 13:59:48;;;;;;;4.20;1.70;;;7.20;70.50;;;;;;6264730;28;20126;-77
2021/04/06 14:02:50;;;;;;;1.88;0.93;;;7.60;68.50;;;;;;6263580;28;20515;-77
2021/04/06 14:05:52;;;;;;;1.73;1.63;;;7.90;66.20;;;;;;6249146;28;20124;-77
2021/04/06 14:08:54;;;;;;;2.63;1.98;;;8.20;64.60;;;;;;6258997;28;20582;-77
2021/04/06 14:11:55;;;;;;;1.65;1.02;;;8.40;65.70;;;;;;6253375;28;20057;-77
2021/04/06 14:14:57;;;;;;;2.58;1.13;;;8.60;61.90;;;;;;6265559;28;20642;-76
2021/04/06 14:17:58;;;;;;;4.65;1.48;;;9.10;61.70;;;;;;6248111;28;20419;-77
2021/04/06 14:21:00;;;;;;;3.08;1.58;;;9.20;58.20;;;;;;6249911;28;20061;-77
2021/04/06 14:24:02;;;;;;;3.45;0.98;;;9.20;58.60;;;;;;6264301;28;20072;-77
2021/04/06 14:27:05;;;;;;;4.70;1.83;;;9.30;59.10;;;;;;6256347;28;20049;-77
2021/04/06 14:30:07;;;;;;;2.97;1.42;;;9.30;59.10;;;;;;6256209;28;20477;-77
2021/04/06 14:33:09;;;;;;;4.32;2.22;;;9.30;60.00;;;;;;6243456;28;20072;-77
2021/04/06 14:36:13;;;;;;;2.63;1.30;;;9.30;58.80;;;;;;6260718;28;20075;-77
2021/04/06 14:39:15;;;;;;;3.55;1.52;;;9.30;58.50;;;;;;6263678;28;20069;-77
2021/04/06 14:42:16;;;;;;;5.65;5.07;;;9.40;56.80;;;;;;6250563;28;20080;-77
2021/04/06 14:45:21;;;;;;;22.55;10.85;;;9.50;57.30;;;;;;6283630;28;20063;-78
2021/04/06 14:48:23;;;;;;;6.47;5.88;;;9.60;55.90;;;;;;6280966;28;20050;-77
2021/04/06 14:51:26;;;;;;;4.18;3.88;;;9.70;55.00;;;;;;6285064;28;20040;-76
2021/04/06 14:54:31;;;;;;;3.90;3.03;;;9.90;53.00;;;;;;6278401;28;20057;-77
2021/04/06 14:57:35;;;;;;;4.55;2.13;;;9.80;52.70;;;;;;6269357;28;20071;-77
2021/04/06 15:00:36;;;;;;;4.15;1.40;;;9.80;53.70;;;;;;6284467;28;20039;-77
2021/04/06 15:03:42;;;;;;;2.13;1.05;;;10.00;52.80;;;;;;6267835;28;20053;-76
2021/04/06 15:06:43;;;;;;;4.82;1.52;;;10.10;52.40;;;;;;6253763;28;20053;-76
2021/04/06 15:09:46;;;;;;;1.50;1.23;;;10.00;53.30;;;;;;6262518;28;20116;-77
2021/04/06 15:12:50;;;;;;;3.17;1.23;;;9.70;54.30;;;;;;6252172;28;20045;-77
2021/04/06 15:15:54;;;;;;;2.00;1.60;;;9.60;49.10;;;;;;6261230;28;20147;-77
2021/04/06 15:18:55;;;;;;;1.15;0.90;;;9.50;50.70;;;;;;6254311;28;20132;-77
2021/04/06 15:22:00;;;;;;;3.15;1.10;;;9.30;49.70;;;;;;6245075;28;20064;-77
2021/04/06 15:25:12;;;;;;;3.75;1.30;;;9.00;51.10;;;;;;6255085;28;20136;-76
2021/04/06 15:28:14;;;;;;;2.95;1.20;;;8.70;51.50;;;;;;6261406;28;20049;-77
2021/04/06 15:31:16;;;;;;;1.48;1.00;;;8.50;51.80;;;;;;6253915;28;20053;-77
2021/04/06 15:34:19;;;;;;;2.75;1.27;;;8.30;52.10;;;;;;6238472;28;20045;-76
2021/04/06 15:37:27;;;;;;;4.38;1.30;;;8.20;52.20;;;;;;6255519;28;20606;-76
2021/04/06 15:40:29;;;;;;;;;;;8.10;53.10;;;;;;6261608;28;20071;-76
2021/04/06 15:43:31;;;;;;;3.53;1.95;;;8.00;56.50;;;;;;6262737;28;20370;-78
2021/04/06 15:46:32;;;;;;;5.30;3.20;;;7.90;55.70;;;;;;6262940;28;20136;-77
2021/04/06 15:49:39;;;;;;;25.10;18.65;;;7.90;57.00;;;;;;6254425;28;20420;-78
2021/04/06 15:52:41;;;;;;;9.53;6.80;;;8.00;55.00;;;;;;6258807;28;20518;-76
2021/04/06 15:55:45;;;;;;;5.18;4.68;;;8.10;56.60;;;;;;6256560;28;20124;-77
2021/04/06 15:58:47;;;;;;;2.05;1.70;;;7.90;55.20;;;;;;6259801;28;20494;-77
2021/04/06 16:01:49;;;;;;;4.78;2.33;;;7.90;57.60;;;;;;6264040;28;20129;-77